Time;durP1;ratioP1;P1;durP2;ratioP2;P2;SDS_P1;SDS_P2;PMS_P1;PMS_P2;Temp;Humidity;BMP_temperature;BMP_pressure;BME280_temperature;BME280_humidity;BME280_pressure;Samples;Min_cycle;Max_cycle;Signal;HPM_P1;HPM_P2
2023/02/16 00:00:45;;;;;;;;;;;5.80;99.90;;;;;;5051852;28;19964;-81
2023/02/16 00:03:13;;;;;;;;;;;5.70;99.90;;;;;;5047478;28;19928;-82
2023/02/16 00:05:38;;;;;;;;;;;6.00;99.90;;;;;;5050100;28;19916;-83
2023/02/16 00:08:04;;;;;;;;;;;5.10;99.90;;;;;;5052373;28;19924;-83
2023/02/16 00:10:34;;;;;;;;;;;6.00;99.90;;;;;;5035411;28;19936;-82
2023/02/16 00:15:44;;;;;;;;;;;5.70;99.90;;;;;;5051514;28;19917;-82
2023/02/16 00:18:17;;;;;;;;;;;5.50;99.90;;;;;;5051712;28;19925;-82
2023/02/16 00:20:45;;;;;;;;;;;5.40;99.90;;;;;;5049918;28;20022;-82
2023/02/16 00:23:10;;;;;;;;;;;5.40;99.90;;;;;;5045621;28;19921;-81
2023/02/16 00:25:37;;;;;;;;;;;5.50;99.90;;;;;;5012378;28;19921;-81
2023/02/16 00:28:04;;;;;;;;;;;5.60;99.90;;;;;;5049917;28;20303;-84
2023/02/16 00:30:30;;;;;;;;;;;5.40;99.90;;;;;;5049082;28;19931;-82
2023/02/16 00:32:55;;;;;;;;;;;5.60;99.90;;;;;;5043104;28;19921;-84
2023/02/16 00:35:21;;;;;;;;;;;5.60;99.90;;;;;;5015290;28;19947;-80
2023/02/16 00:37:47;;;;;;;;;;;5.70;99.90;;;;;;5052533;28;20003;-81
2023/02/16 00:40:13;;;;;;;;;;;5.70;99.90;;;;;;5052419;28;20284;-82
2023/02/16 00:42:39;;;;;;;;;;;6.00;99.90;;;;;;5054765;28;19924;-83
2023/02/16 00:45:12;;;;;;;;;;;5.90;99.90;;;;;;5052317;28;19917;-83
2023/02/16 00:47:40;;;;;;;;;;;5.30;99.90;;;;;;5044408;28;19917;-82
2023/02/16 00:50:24;;;;;;;;;;;5.40;99.90;;;;;;5058601;28;19933;-80
2023/02/16 00:52:50;;;;;;;;;;;5.30;99.90;;;;;;5032075;28;19924;-82
2023/02/16 00:55:16;;;;;;;;;;;5.20;99.90;;;;;;5047547;28;19974;-81
2023/02/16 00:57:43;;;;;;;;;;;5.50;99.90;;;;;;5066293;28;19921;-82
2023/02/16 01:00:09;;;;;;;;;;;5.50;99.90;;;;;;5071532;28;20301;-82
2023/02/16 01:02:34;;;;;;;;;;;5.20;99.90;;;;;;5071904;28;19916;-81
2023/02/16 01:05:00;;;;;;;;;;;5.90;99.90;;;;;;5040917;28;19924;-82
2023/02/16 01:12:54;;;;;;;;;;;5.50;99.90;;;;;;5053209;28;20007;-81
2023/02/16 01:15:21;;;;;;;;;;;5.10;99.90;;;;;;5050004;28;19999;-82
2023/02/16 01:17:47;;;;;;;;;;;5.30;99.90;;;;;;5034167;28;19932;-83
2023/02/16 01:20:14;;;;;;;;;;;5.40;99.90;;;;;;5036460;28;19920;-80
2023/02/16 01:22:40;;;;;;;;;;;5.10;99.90;;;;;;5051452;28;19924;-81
2023/02/16 01:25:05;;;;;;;;;;;5.50;99.90;;;;;;5047058;28;20043;-82
2023/02/16 01:27:31;;;;;;;;;;;5.00;99.90;;;;;;5048151;28;20008;-81
2023/02/16 01:29:57;;;;;;;;;;;5.50;99.90;;;;;;5050622;28;19924;-80
2023/02/16 01:32:22;;;;;;;;;;;5.20;99.90;;;;;;5050576;28;19917;-82
2023/02/16 01:34:48;;;;;;;;;;;5.30;99.90;;;;;;5046732;28;19924;-79
2023/02/16 01:37:14;;;;;;;;;;;5.10;99.90;;;;;;5041210;28;19916;-81
2023/02/16 01:39:40;;;;;;;;;;;5.30;99.90;;;;;;5050510;28;20266;-78
2023/02/16 01:42:32;;;;;;;;;;;5.20;99.90;;;;;;5049735;28;19924;-81
2023/02/16 01:45:02;;;;;;;;;;;4.90;99.90;;;;;;5048991;28;19916;-82
2023/02/16 01:47:36;;;;;;;;;;;5.00;99.90;;;;;;5048118;28;19921;-81
2023/02/16 01:50:13;;;;;;;;;;;4.70;99.90;;;;;;5043437;28;20073;-81
2023/02/16 01:52:41;;;;;;;;;;;5.20;99.90;;;;;;5030972;28;19921;-80
2023/02/16 01:55:13;;;;;;;;;;;4.90;99.90;;;;;;5035502;28;20026;-82
2023/02/16 01:57:45;;;;;;;;;;;4.70;99.90;;;;;;5047124;28;19917;-82
2023/02/16 02:00:11;;;;;;;;;;;4.80;99.90;;;;;;5049287;28;19921;-80
2023/02/16 02:02:53;;;;;;;;;;;4.90;99.90;;;;;;5051252;28;19993;-80
2023/02/16 02:05:36;;;;;;;;;;;4.80;99.90;;;;;;5049749;28;19952;-81
2023/02/16 02:08:02;;;;;;;;;;;4.80;99.90;;;;;;5020921;28;19917;-80
2023/02/16 02:10:44;;;;;;;;;;;5.30;99.90;;;;;;5038696;28;20012;-80
2023/02/16 02:13:18;;;;;;;;;;;4.80;99.90;;;;;;5052608;28;20259;-82
2023/02/16 02:15:44;;;;;;;;;;;4.80;99.90;;;;;;5030639;28;20017;-81
2023/02/16 02:18:10;;;;;;;;;;;5.10;99.90;;;;;;5045235;28;19994;-79
2023/02/16 02:23:32;;;;;;;;;;;4.70;99.90;;;;;;5051570;28;19974;-81
2023/02/16 02:25:59;;;;;;;;;;;4.70;99.90;;;;;;5053556;28;20440;-81
2023/02/16 02:28:33;;;;;;;;;;;5.20;99.90;;;;;;5032082;28;20355;-80
2023/02/16 02:31:19;;;;;;;;;;;4.90;99.90;;;;;;5030323;28;19932;-79
2023/02/16 02:33:58;;;;;;;;;;;5.10;99.90;;;;;;5029693;28;19921;-79
2023/02/16 02:36:35;;;;;;;;;;;4.80;99.90;;;;;;5031985;28;19964;-80
2023/02/16 02:39:12;;;;;;;;;;;4.90;99.90;;;;;;5040279;28;19916;-80
2023/02/16 02:42:04;;;;;;;;;;;5.10;99.90;;;;;;5027817;28;19924;-82
2023/02/16 02:44:31;;;;;;;;;;;4.90;99.90;;;;;;5038399;28;20042;-80
2023/02/16 02:46:56;;;;;;;;;;;5.10;99.90;;;;;;5051155;28;19985;-82
2023/02/16 02:49:22;;;;;;;;;;;4.70;99.90;;;;;;5051532;28;20373;-81
2023/02/16 02:51:48;;;;;;;;;;;4.70;99.90;;;;;;5064280;28;19928;-81
2023/02/16 03:02:34;;;;;;;;;;;4.80;99.90;;;;;;5052680;28;19920;-82
2023/02/16 03:05:01;;;;;;;;;;;4.90;99.90;;;;;;5051456;28;20026;-83
2023/02/16 03:07:45;;;;;;;;;;;4.70;99.90;;;;;;5054547;28;20335;-83
2023/02/16 03:13:06;;;;;;;;;;;4.80;99.90;;;;;;5053761;28;19920;-83
2023/02/16 03:15:33;;;;;;;;;;;4.90;99.90;;;;;;5035866;28;20262;-84
2023/02/16 03:31:46;;;;;;;;;;;5.50;99.90;;;;;;5046363;28;19920;-82
2023/02/16 03:34:11;;;;;;;;;;;5.60;99.90;;;;;;5042379;28;19917;-82
2023/02/16 03:36:38;;;;;;;;;;;5.80;99.90;;;;;;5053936;28;20275;-83
2023/02/16 03:39:05;;;;;;;;;;;5.50;99.90;;;;;;5054303;28;19920;-82
2023/02/16 03:41:32;;;;;;;;;;;5.70;99.90;;;;;;5049872;28;19924;-82
2023/02/16 03:43:58;;;;;;;;;;;5.80;99.90;;;;;;5052522;28;19924;-83
2023/02/16 03:46:23;;;;;;;;;;;5.80;99.90;;;;;;5053507;28;19978;-80
2023/02/16 03:48:49;;;;;;;;;;;5.70;99.90;;;;;;5056926;28;20407;-83
2023/02/16 03:51:14;;;;;;;;;;;5.50;99.90;;;;;;5060474;28;19932;-82
2023/02/16 03:53:40;;;;;;;;;;;5.50;99.90;;;;;;5049608;28;19966;-81
2023/02/16 03:56:06;;;;;;;;;;;5.90;99.90;;;;;;5051963;28;19962;-81
2023/02/16 03:58:32;;;;;;;;;;;5.50;99.90;;;;;;5071678;28;19923;-80
2023/02/16 04:00:58;;;;;;;;;;;5.50;99.90;;;;;;5065018;28;20011;-81
2023/02/16 04:03:25;;;;;;;;;;;5.60;99.90;;;;;;5051441;28;19959;-82
2023/02/16 04:05:50;;;;;;;;;;;5.80;99.90;;;;;;5050306;28;20289;-83
2023/02/16 04:08:16;;;;;;;;;;;5.90;99.90;;;;;;5016838;28;19917;-81
2023/02/16 04:10:41;;;;;;;;;;;6.10;99.90;;;;;;5035886;28;19921;-82
2023/02/16 04:13:07;;;;;;;;;;;5.60;99.90;;;;;;5052544;28;20027;-82
2023/02/16 04:15:36;;;;;;;;;;;5.60;99.90;;;;;;5051194;28;19963;-80
2023/02/16 04:18:02;;;;;;;;;;;5.70;99.90;;;;;;5032904;28;19917;-82
2023/02/16 04:20:29;;;;;;;;;;;5.70;99.90;;;;;;5032764;28;20282;-82
2023/02/16 04:22:54;;;;;;;;;;;5.60;99.90;;;;;;5045172;28;19916;-81
2023/02/16 04:25:20;;;;;;;;;;;5.70;99.90;;;;;;5062882;28;20029;-81
2023/02/16 04:27:47;;;;;;;;;;;6.00;99.90;;;;;;5036854;28;20290;-81
2023/02/16 04:30:20;;;;;;;;;;;6.10;99.90;;;;;;5024717;28;20698;-82
2023/02/16 04:32:46;;;;;;;;;;;6.00;99.90;;;;;;5045763;28;19962;-82
2023/02/16 04:35:11;;;;;;;;;;;5.70;99.90;;;;;;5029136;28;19955;-80
2023/02/16 04:37:37;;;;;;;;;;;5.90;99.90;;;;;;5050391;28;19916;-80
2023/02/16 04:40:04;;;;;;;;;;;5.70;99.90;;;;;;5052501;28;19923;-84
2023/02/16 04:42:31;;;;;;;;;;;5.90;99.90;;;;;;5032558;28;19928;-82
2023/02/16 04:44:56;;;;;;;;;;;5.80;99.90;;;;;;5019155;28;19967;-83
2023/02/16 04:47:24;;;;;;;;;;;6.20;99.90;;;;;;5031960;28;19987;-82
2023/02/16 04:49:50;;;;;;;;;;;6.20;99.90;;;;;;5052213;28;19956;-83
2023/02/16 04:52:15;;;;;;;;;;;5.80;99.90;;;;;;5051242;28;19963;-81
2023/02/16 04:54:42;;;;;;;;;;;5.90;99.90;;;;;;5033797;28;19920;-81
2023/02/16 04:57:08;;;;;;;;;;;6.30;99.90;;;;;;5059919;28;19916;-81
2023/02/16 04:59:33;;;;;;;;;;;5.90;99.90;;;;;;5073138;28;19922;-81
2023/02/16 05:01:59;;;;;;;;;;;6.00;99.90;;;;;;5071646;28;19924;-81
2023/02/16 05:04:24;;;;;;;;;;;5.90;99.90;;;;;;5053651;28;20417;-82
2023/02/16 05:06:50;;;;;;;;;;;6.10;99.90;;;;;;5051887;28;19924;-81
2023/02/16 05:09:16;;;;;;;;;;;5.90;99.90;;;;;;5051665;28;20358;-82
2023/02/16 05:14:43;;;;;;;;;;;6.30;99.90;;;;;;5051094;28;19923;-81
2023/02/16 05:17:16;;;;;;;;;;;5.90;99.90;;;;;;5050468;28;19921;-81
2023/02/16 05:19:43;;;;;;;;;;;6.00;99.90;;;;;;5050442;28;19924;-82
2023/02/16 05:22:09;;;;;;;;;;;6.00;99.90;;;;;;5050988;28;20369;-81
2023/02/16 05:24:35;;;;;;;;;;;6.60;99.90;;;;;;5050967;28;19927;-82
2023/02/16 05:27:05;;;;;;;;;;;5.90;99.90;;;;;;5036458;28;19917;-82
2023/02/16 05:29:31;;;;;;;;;;;6.00;99.90;;;;;;5050723;28;19952;-82
2023/02/16 05:31:57;;;;;;;;;;;6.50;99.90;;;;;;5021308;28;19963;-82
2023/02/16 05:34:22;;;;;;;;;;;6.30;99.90;;;;;;5039552;28;19928;-85
2023/02/16 05:36:48;;;;;;;;;;;6.40;99.90;;;;;;5028997;28;19921;-81
2023/02/16 05:39:14;;;;;;;;;;;6.10;99.90;;;;;;5047163;28;19923;-82
2023/02/16 05:41:39;;;;;;;;;;;6.10;99.90;;;;;;5048615;28;19978;-81
2023/02/16 05:44:05;;;;;;;;;;;6.20;99.90;;;;;;5048055;28;19920;-81
2023/02/16 05:46:32;;;;;;;;;;;6.30;99.90;;;;;;5052098;28;19964;-83
2023/02/16 05:48:58;;;;;;;;;;;6.00;99.90;;;;;;5032779;28;19921;-83
2023/02/16 05:51:24;;;;;;;;;;;6.30;99.90;;;;;;5060701;28;19980;-82
2023/02/16 05:53:49;;;;;;;;;;;6.40;99.90;;;;;;5051542;28;19967;-82
2023/02/16 05:56:15;;;;;;;;;;;6.00;99.90;;;;;;5031822;28;20328;-86
2023/02/16 05:58:41;;;;;;;;;;;6.10;99.90;;;;;;5014623;28;19947;-91
2023/02/16 06:01:07;;;;;;;;;;;6.00;99.90;;;;;;5053661;28;20003;-87
2023/02/16 06:03:34;;;;;;;;;;;6.00;99.90;;;;;;5038391;28;20362;-90
2023/02/16 06:06:00;;;;;;;;;;;6.50;99.90;;;;;;5050281;28;19920;-86
2023/02/16 06:08:27;;;;;;;;;;;6.10;99.90;;;;;;5048657;28;20031;-87
2023/02/16 06:10:53;;;;;;;;;;;6.20;99.90;;;;;;5057768;28;19925;-87
2023/02/16 06:13:19;;;;;;;;;;;6.00;99.90;;;;;;5051141;28;19960;-86
2023/02/16 06:15:45;;;;;;;;;;;6.40;99.90;;;;;;5047923;28;19917;-83
2023/02/16 06:18:11;;;;;;;;;;;6.60;99.90;;;;;;5044730;28;19917;-86
2023/02/16 06:20:38;;;;;;;;;;;6.30;99.90;;;;;;5050726;28;19924;-86
2023/02/16 06:23:05;;;;;;;;;;;6.00;99.90;;;;;;5049110;28;19927;-82
2023/02/16 06:25:30;;;;;;;;;;;6.30;99.90;;;;;;5052953;28;20259;-84
2023/02/16 06:27:56;;;;;;;;;;;5.90;99.90;;;;;;5034403;28;19923;-84
2023/02/16 06:30:25;;;;;;;;;;;6.10;99.90;;;;;;5047632;28;19924;-85
2023/02/16 06:32:50;;;;;;;;;;;6.00;99.90;;;;;;5049870;28;19920;-81
2023/02/16 06:35:16;;;;;;;;;;;6.00;99.90;;;;;;5037017;28;19962;-85
2023/02/16 06:37:42;;;;;;;;;;;6.00;99.90;;;;;;5035091;28;19924;-85
2023/02/16 06:40:14;;;;;;;;;;;6.10;99.90;;;;;;5049008;28;19920;-84
2023/02/16 06:42:40;;;;;;;;;;;6.10;99.90;;;;;;5046623;28;19920;-84
2023/02/16 06:45:06;;;;;;;;;;;6.50;99.90;;;;;;5048692;28;19924;-85
2023/02/16 06:47:31;;;;;;;;;;;6.10;99.90;;;;;;5039767;28;19921;-84
2023/02/16 06:49:57;;;;;;;;;;;6.20;99.90;;;;;;5048859;28;20282;-84
2023/02/16 06:52:22;;;;;;;;;;;6.10;99.90;;;;;;5048936;28;19917;-84
2023/02/16 06:54:48;;;;;;;;;;;6.10;99.90;;;;;;5035471;28;19920;-83
2023/02/16 06:57:13;;;;;;;;;;;6.40;99.90;;;;;;5030664;28;19916;-85
2023/02/16 06:59:39;;;;;;;;;;;6.30;99.90;;;;;;5052200;28;19974;-85
2023/02/16 07:02:05;;;;;;;;;;;6.20;99.90;;;;;;5034177;28;20400;-85
2023/02/16 07:04:32;;;;;;;;;;;6.20;99.90;;;;;;5054092;28;19970;-84
2023/02/16 07:06:57;;;;;;;;;;;7.00;99.90;;;;;;5052217;28;20301;-85
2023/02/16 07:09:23;;;;;;;;;;;6.50;99.90;;;;;;5018302;28;19916;-83
2023/02/16 07:11:48;;;;;;;;;;;6.30;99.90;;;;;;5049201;28;19920;-84
2023/02/16 07:14:14;;;;;;;;;;;6.30;99.90;;;;;;5051114;28;20003;-84
2023/02/16 07:16:40;;;;;;;;;;;6.30;99.90;;;;;;5051948;28;19921;-85
2023/02/16 07:19:06;;;;;;;;;;;6.30;99.90;;;;;;5052033;28;19920;-86
2023/02/16 07:21:32;;;;;;;;;;;6.50;99.90;;;;;;5021105;28;19916;-84
2023/02/16 07:23:57;;;;;;;;;;;6.40;99.90;;;;;;5043599;28;19917;-85
2023/02/16 07:26:23;;;;;;;;;;;6.50;99.90;;;;;;5017953;28;19917;-84
2023/02/16 07:28:48;;;;;;;;;;;6.50;99.90;;;;;;5015376;28;19968;-84
2023/02/16 07:31:14;;;;;;;;;;;6.40;99.90;;;;;;5016056;28;19921;-85
2023/02/16 07:33:40;;;;;;;;;;;6.70;99.90;;;;;;5055317;28;19920;-84
2023/02/16 07:36:07;;;;;;;;;;;6.60;99.90;;;;;;5043483;28;19924;-85
2023/02/16 07:38:32;;;;;;;;;;;6.50;99.90;;;;;;5058138;28;19924;-83
2023/02/16 07:40:58;;;;;;;;;;;6.60;99.90;;;;;;5047286;28;19921;-82
2023/02/16 07:43:24;;;;;;;;;;;7.00;99.90;;;;;;5048323;28;19966;-86
2023/02/16 07:45:50;;;;;;;;;;;6.90;99.90;;;;;;5039254;28;19925;-84
2023/02/16 07:48:16;;;;;;;;;;;6.60;99.90;;;;;;5055213;28;19916;-84
2023/02/16 07:50:42;;;;;;;;;;;6.80;99.90;;;;;;5038004;28;19968;-84
2023/02/16 07:53:08;;;;;;;;;;;6.70;99.90;;;;;;5054396;28;20005;-84
2023/02/16 07:55:43;;;;;;;;;;;6.70;99.90;;;;;;5025313;28;20466;-83
2023/02/16 07:58:09;;;;;;;;;;;6.80;99.90;;;;;;5034175;28;19928;-84
2023/02/16 08:00:35;;;;;;;;;;;6.70;99.90;;;;;;5017983;28;20385;-85
2023/02/16 08:03:01;;;;;;;;;;;6.70;99.90;;;;;;5024233;28;19916;-84
2023/02/16 08:05:27;;;;;;;;;;;6.60;99.90;;;;;;5047702;28;19928;-82
2023/02/16 08:07:53;;;;;;;;;;;6.80;99.90;;;;;;5018372;28;19923;-84
2023/02/16 08:10:19;;;;;;;;;;;6.80;99.90;;;;;;5034586;28;20019;-84
2023/02/16 08:12:45;;;;;;;;;;;6.80;99.90;;;;;;5001659;28;19943;-84
2023/02/16 08:15:10;;;;;;;;;;;6.90;99.90;;;;;;5048567;28;20609;-84
2023/02/16 08:17:39;;;;;;;;;;;7.00;99.90;;;;;;5038335;28;20329;-84
2023/02/16 08:20:06;;;;;;;;;;;6.90;99.90;;;;;;5038096;28;20436;-84
2023/02/16 08:22:32;;;;;;;;;;;7.00;99.90;;;;;;5051127;28;19925;-84
2023/02/16 08:24:58;;;;;;;;;;;6.90;99.90;;;;;;5046175;28;19923;-84
2023/02/16 08:27:25;;;;;;;;;;;7.00;99.90;;;;;;5034467;28;19917;-84
2023/02/16 08:29:51;;;;;;;;;;;7.10;99.90;;;;;;5064657;28;19926;-82
2023/02/16 08:32:17;;;;;;;;;;;7.10;99.90;;;;;;5042152;28;19992;-83
2023/02/16 08:34:48;;;;;;;;;;;7.30;99.90;;;;;;5035321;28;20437;-84
2023/02/16 08:37:14;;;;;;;;;;;7.10;99.90;;;;;;5029411;28;19973;-84
2023/02/16 08:39:40;;;;;;;;;;;7.40;99.90;;;;;;5038260;28;19920;-85
2023/02/16 08:42:06;;;;;;;;;;;7.10;99.90;;;;;;5054710;28;20332;-85
2023/02/16 08:44:31;;;;;;;;;;;7.40;99.90;;;;;;5037452;28;19925;-85
2023/02/16 08:46:59;;;;;;;;;;;7.30;99.90;;;;;;5053014;28;19928;-85
2023/02/16 08:49:25;;;;;;;;;;;7.30;99.90;;;;;;5036536;28;20381;-83
2023/02/16 08:51:51;;;;;;;;;;;7.30;99.90;;;;;;5056513;28;19995;-86
2023/02/16 08:54:19;;;;;;;;;;;7.60;99.90;;;;;;5057272;28;20270;-84
2023/02/16 08:56:46;;;;;;;;;;;7.30;99.90;;;;;;5051844;28;19939;-85
2023/02/16 08:59:16;;;;;;;;;;;7.30;99.90;;;;;;5056004;28;19921;-84
2023/02/16 09:01:42;;;;;;;;;;;7.40;99.90;;;;;;5037339;28;19924;-87
2023/02/16 09:04:08;;;;;;;;;;;7.30;99.90;;;;;;5037079;28;20279;-83
2023/02/16 09:06:39;;;;;;;;;;;7.40;99.90;;;;;;5053010;28;19967;-83
2023/02/16 09:09:05;;;;;;;;;;;7.40;99.90;;;;;;5052549;28;19939;-85
2023/02/16 09:11:31;;;;;;;;;;;7.50;99.90;;;;;;5052927;28;19921;-85
2023/02/16 09:13:57;;;;;;;;;;;7.50;99.90;;;;;;5053793;28;20277;-85
2023/02/16 09:16:23;;;;;;;;;;;7.70;99.90;;;;;;5045518;28;19967;-85
2023/02/16 09:18:50;;;;;;;;;;;7.70;99.90;;;;;;5022785;28;19924;-86
2023/02/16 09:21:17;;;;;;;;;;;7.70;99.90;;;;;;5052475;28;20395;-84
2023/02/16 09:23:46;;;;;;;;;;;7.70;99.90;;;;;;5052355;28;20011;-84
2023/02/16 09:26:11;;;;;;;;;;;7.70;99.90;;;;;;5052661;28;20011;-83
2023/02/16 09:28:38;;;;;;;;;;;7.70;99.90;;;;;;5053282;28;19967;-86
2023/02/16 09:31:08;;;;;;;;;;;7.70;99.90;;;;;;5053480;28;19932;-85
2023/02/16 09:33:34;;;;;;;;;;;7.70;99.90;;;;;;5055152;28;20404;-84
2023/02/16 09:36:02;;;;;;;;;;;7.80;99.90;;;;;;5053135;28;19921;-84
2023/02/16 09:38:28;;;;;;;;;;;7.90;99.90;;;;;;5052392;28;20289;-86
2023/02/16 09:40:55;;;;;;;;;;;8.10;99.90;;;;;;5036062;28;19917;-83
2023/02/16 09:43:24;;;;;;;;;;;8.10;99.90;;;;;;5052991;28;20424;-84
2023/02/16 09:45:52;;;;;;;;;;;8.10;99.90;;;;;;5053854;28;19921;-84
2023/02/16 09:48:23;;;;;;;;;;;8.30;99.90;;;;;;5035630;28;19928;-84
2023/02/16 09:50:50;;;;;;;;;;;8.30;99.90;;;;;;5035410;28;19956;-85
2023/02/16 09:53:21;;;;;;;;;;;8.30;99.90;;;;;;5052234;28;19921;-84
2023/02/16 09:55:50;;;;;;;;;;;8.40;99.90;;;;;;5051831;28;19916;-84
2023/02/16 09:58:18;;;;;;;;;;;8.50;99.90;;;;;;5051222;28;20399;-84
2023/02/16 10:00:49;;;;;;;;;;;8.60;99.90;;;;;;5031828;28;19917;-85
2023/02/16 10:03:35;;;;;;;;;;;8.60;99.90;;;;;;5016257;28;19921;-86
2023/02/16 10:06:01;;;;;;;;;;;8.60;99.90;;;;;;5033085;28;19917;-85
2023/02/16 10:08:30;;;;;;;;;;;8.50;99.90;;;;;;5039399;28;19975;-84
2023/02/16 10:11:01;;;;;;;;;;;8.50;99.90;;;;;;5035205;28;19920;-85
2023/02/16 10:13:35;;;;;;;;;;;8.30;99.90;;;;;;5051962;28;20370;-83
2023/02/16 10:16:03;;;;;;;;;;;8.30;99.90;;;;;;5052679;28;19923;-84
2023/02/16 10:18:29;;;;;;;;;;;8.20;99.90;;;;;;5035111;28;19916;-84
2023/02/16 10:20:57;;;;;;;;;;;8.20;99.90;;;;;;5055101;28;19967;-85
2023/02/16 10:23:42;;;;;;;;;;;8.50;99.90;;;;;;5035191;28;19921;-85
2023/02/16 10:26:07;;;;;;;;;;;8.20;99.90;;;;;;5052410;28;19920;-84
2023/02/16 10:28:49;;;;;;;;;;;8.20;99.90;;;;;;5052356;28;19923;-84
2023/02/16 10:31:17;;;;;;;;;;;8.60;99.90;;;;;;5038378;28;19947;-83
2023/02/16 10:33:44;;;;;;;;;;;8.40;99.90;;;;;;5040128;28;19984;-86
2023/02/16 10:36:29;;;;;;;;;;;8.50;99.90;;;;;;5039563;28;19971;-85
2023/02/16 10:39:05;;;;;;;;;;;8.60;99.90;;;;;;5033064;28;19971;-84
2023/02/16 10:41:35;;;;;;;;;;;8.50;99.90;;;;;;5050954;28;20328;-84
2023/02/16 10:44:10;;;;;;;;;;;8.70;99.90;;;;;;5042241;28;20286;-84
2023/02/16 10:46:38;;;;;;;;;;;8.60;99.90;;;;;;5053117;28;19920;-85
2023/02/16 10:49:08;;;;;;;;;;;8.50;99.90;;;;;;5035610;28;19917;-83
2023/02/16 10:51:36;;;;;;;;;;;8.40;99.90;;;;;;5065884;28;19924;-84
2023/02/16 10:54:07;;;;;;;;;;;8.40;99.90;;;;;;5056595;28;20340;-85
2023/02/16 10:56:51;;;;;;;;;;;8.40;99.90;;;;;;5039771;28;19920;-84
2023/02/16 10:59:21;;;;;;;;;;;8.30;99.90;;;;;;5062215;28;20373;-86
2023/02/16 11:01:52;;;;;;;;;;;8.30;99.90;;;;;;5050888;28;19917;-85
2023/02/16 11:04:39;;;;;;;;;;;8.30;99.90;;;;;;5051898;28;19924;-84
2023/02/16 11:07:12;;;;;;;;;;;8.30;99.90;;;;;;5053304;28;19917;-86
2023/02/16 11:09:38;;;;;;;;;;;8.30;99.90;;;;;;5062511;28;19916;-81
2023/02/16 11:12:23;;;;;;;;;;;8.40;99.90;;;;;;5045939;28;19947;-86
2023/02/16 11:14:50;;;;;;;;;;;8.40;99.90;;;;;;5035358;28;19927;-84
2023/02/16 11:17:16;;;;;;;;;;;8.40;99.90;;;;;;5037171;28;19931;-83
2023/02/16 11:19:53;;;;;;;;;;;8.50;99.90;;;;;;5034880;28;19974;-83
2023/02/16 11:22:30;;;;;;;;;;;8.40;99.90;;;;;;5036088;28;19917;-83
2023/02/16 11:24:58;;;;;;;;;;;9.10;99.90;;;;;;5035615;28;20375;-84
2023/02/16 11:27:23;;;;;;;;;;;8.50;99.90;;;;;;5019922;28;19963;-84
2023/02/16 11:29:52;;;;;;;;;;;8.40;99.90;;;;;;5040686;28;19921;-84
2023/02/16 11:32:20;;;;;;;;;;;8.50;99.90;;;;;;5040159;28;20014;-84
2023/02/16 11:34:46;;;;;;;;;;;8.50;99.90;;;;;;5039153;28;19942;-85
2023/02/16 11:37:27;;;;;;;;;;;8.50;99.90;;;;;;5055137;28;19916;-86
2023/02/16 11:39:57;;;;;;;;;;;8.60;99.90;;;;;;5055042;28;19917;-85
2023/02/16 11:42:28;;;;;;;;;;;8.50;99.90;;;;;;5036265;28;19917;-85
2023/02/16 11:44:55;;;;;;;;;;;8.60;99.90;;;;;;5019688;28;19924;-85
2023/02/16 11:47:21;;;;;;;;;;;8.70;99.90;;;;;;5072431;28;20326;-85
2023/02/16 11:49:48;;;;;;;;;;;8.80;99.90;;;;;;5041493;28;19997;-84
2023/02/16 11:52:22;;;;;;;;;;;8.80;99.90;;;;;;5059598;28;19920;-84
2023/02/16 11:54:52;;;;;;;;;;;8.80;99.90;;;;;;5038958;28;19916;-86
2023/02/16 11:57:24;;;;;;;;;;;8.80;99.90;;;;;;5056762;28;19923;-84
2023/02/16 11:59:50;;;;;;;;;;;8.80;99.90;;;;;;5055192;28;19917;-82
2023/02/16 12:02:16;;;;;;;;;;;8.80;99.90;;;;;;5039170;28;19924;-86
2023/02/16 12:05:14;;;;;;;;;;;8.80;99.90;;;;;;5055432;28;19923;-84
2023/02/16 12:07:49;;;;;;;;;;;8.80;99.90;;;;;;5017780;28;20366;-85
2023/02/16 12:10:18;;;;;;;;;;;8.80;99.90;;;;;;5019065;28;20326;-83
2023/02/16 12:12:44;;;;;;;;;;;8.90;99.90;;;;;;5031018;28;19924;-85
2023/02/16 12:15:23;;;;;;;;;;;8.90;99.90;;;;;;5054714;28;19924;-85
2023/02/16 12:18:03;;;;;;;;;;;9.00;99.90;;;;;;5054734;28;19923;-86
2023/02/16 12:20:31;;;;;;;;;;;8.90;99.90;;;;;;5054407;28;20329;-85
2023/02/16 12:23:01;;;;;;;;;;;9.00;99.90;;;;;;5054447;28;20317;-84
2023/02/16 12:25:30;;;;;;;;;;;9.40;99.90;;;;;;5058476;28;19923;-84
2023/02/16 12:28:03;;;;;;;;;;;9.20;99.90;;;;;;5058065;28;19920;-85
2023/02/16 12:30:32;;;;;;;;;;;9.40;99.90;;;;;;5038218;28;19920;-85
2023/02/16 12:33:02;;;;;;;;;;;9.40;99.90;;;;;;5055192;28;20324;-85
2023/02/16 12:35:43;;;;;;;;;;;9.50;99.90;;;;;;5061014;28;19923;-83
2023/02/16 12:38:09;;;;;;;;;;;9.50;99.90;;;;;;5061315;28;19916;-88
2023/02/16 12:40:35;;;;;;;;;;;9.60;99.90;;;;;;5061021;28;19916;-85
2023/02/16 12:43:01;;;;;;;;;;;9.70;99.90;;;;;;5059136;28;19916;-84
2023/02/16 12:45:30;;;;;;;;;;;9.70;99.90;;;;;;5043736;28;19959;-85
2023/02/16 12:47:57;;;;;;;;;;;10.00;99.90;;;;;;5062472;28;20386;-84
2023/02/16 12:50:26;;;;;;;;;;;10.00;99.90;;;;;;5055511;28;19924;-86
2023/02/16 12:52:54;;;;;;;;;;;10.10;99.90;;;;;;5040718;28;19917;-84
2023/02/16 12:55:40;;;;;;;;;;;10.20;99.90;;;;;;5041789;28;20370;-84
2023/02/16 12:58:21;;;;;;;;;;;10.30;99.90;;;;;;5055238;28;19966;-85
2023/02/16 13:00:56;;;;;;;;;;;10.40;99.90;;;;;;5059487;28;19917;-85
2023/02/16 13:03:21;;;;;;;;;;;10.50;99.90;;;;;;5062531;28;19927;-83
2023/02/16 13:05:50;;;;;;;;;;;10.40;99.90;;;;;;5065531;28;19917;-83
2023/02/16 13:08:37;;;;;;;;;;;10.40;99.90;;;;;;5062099;28;19917;-84
2023/02/16 13:11:13;;;;;;;;;;;10.50;99.90;;;;;;5055353;28;19952;-84
2023/02/16 13:13:40;;;;;;;;;;;10.50;99.90;;;;;;5039534;28;19950;-86
2023/02/16 13:16:22;;;;;;;;;;;10.50;99.90;;;;;;5055143;28;19917;-86
2023/02/16 13:18:50;;;;;;;;;;;10.70;99.90;;;;;;5057946;28;19916;-84
2023/02/16 13:21:34;;;;;;;;;;;10.70;99.90;;;;;;5056295;28;20064;-85
2023/02/16 13:24:21;;;;;;;;;;;10.80;99.90;;;;;;5057392;28;19920;-83
2023/02/16 13:27:00;;;;;;;;;;;10.80;99.90;;;;;;5058939;28;19978;-84
2023/02/16 13:29:44;;;;;;;;;;;10.90;99.90;;;;;;5054581;28;19997;-85
2023/02/16 13:32:22;;;;;;;;;;;10.90;99.90;;;;;;5056078;28;19978;-86
2023/02/16 13:34:57;;;;;;;;;;;11.00;99.90;;;;;;5052611;28;19965;-84
2023/02/16 13:37:23;;;;;;;;;;;11.10;99.90;;;;;;5035767;28;19935;-83
2023/02/16 13:40:14;;;;;;;;;;;11.20;99.90;;;;;;5053340;28;19917;-85
2023/02/16 13:42:59;;;;;;;;;;;11.40;99.90;;;;;;5057346;28;19920;-84
2023/02/16 13:45:26;;;;;;;;;;;12.10;99.90;;;;;;5061353;28;19962;-82
2023/02/16 13:47:54;;;;;;;;;;;11.50;99.90;;;;;;5056317;28;19920;-84
2023/02/16 13:50:19;;;;;;;;;;;11.40;99.90;;;;;;5057388;28;19991;-84
2023/02/16 13:52:45;;;;;;;;;;;11.40;99.90;;;;;;5053751;28;20314;-86
2023/02/16 13:55:30;;;;;;;;;;;11.40;99.90;;;;;;5037026;28;19970;-83
2023/02/16 13:58:06;;;;;;;;;;;11.50;99.90;;;;;;5069411;28;20043;-84
2023/02/16 14:00:31;;;;;;;;;;;11.60;99.90;;;;;;5052989;28;20366;-83
2023/02/16 14:02:57;;;;;;;;;;;11.60;99.90;;;;;;5034750;28;19921;-84
2023/02/16 14:05:24;;;;;;;;;;;11.50;99.90;;;;;;5052137;28;19923;-85
2023/02/16 14:08:08;;;;;;;;;;;11.50;99.90;;;;;;5051935;28;19921;-84
2023/02/16 14:10:52;;;;;;;;;;;11.40;99.90;;;;;;5032781;28;19920;-84
2023/02/16 14:13:41;;;;;;;;;;;11.30;99.90;;;;;;5038814;28;19927;-85
2023/02/16 14:16:27;;;;;;;;;;;11.10;99.90;;;;;;5012213;28;19917;-84
2023/02/16 14:18:55;;;;;;;;;;;11.10;99.90;;;;;;5034012;28;20007;-85
2023/02/16 14:21:24;;;;;;;;;;;10.90;99.90;;;;;;5051790;28;19931;-85
2023/02/16 14:23:56;;;;;;;;;;;10.80;99.90;;;;;;5049610;28;19940;-86
2023/02/16 14:26:21;;;;;;;;;;;10.90;99.90;;;;;;5051584;28;19921;-85
2023/02/16 14:28:56;;;;;;;;;;;10.70;99.90;;;;;;5051607;28;19939;-85
2023/02/16 14:31:22;;;;;;;;;;;10.80;99.90;;;;;;5051509;28;20259;-85
2023/02/16 14:33:58;;;;;;;;;;;10.90;99.90;;;;;;5051714;28;19978;-84
2023/02/16 14:36:25;;;;;;;;;;;11.00;99.90;;;;;;5052151;28;19925;-86
2023/02/16 14:38:53;;;;;;;;;;;10.70;99.90;;;;;;5051932;28;19916;-83
2023/02/16 14:41:22;;;;;;;;;;;10.80;99.90;;;;;;5051068;28;19999;-83
2023/02/16 14:43:49;;;;;;;;;;;10.60;99.90;;;;;;5034800;28;19917;-85
2023/02/16 14:46:18;;;;;;;;;;;10.70;99.90;;;;;;5036959;28;19917;-84
2023/02/16 14:49:09;;;;;;;;;;;10.60;99.90;;;;;;5051575;28;19963;-84
2023/02/16 14:51:53;;;;;;;;;;;10.60;99.90;;;;;;5053746;28;19924;-84
2023/02/16 14:54:35;;;;;;;;;;;10.70;99.90;;;;;;5052971;28;19917;-84
2023/02/16 14:57:13;;;;;;;;;;;10.40;99.90;;;;;;5026246;28;19924;-84
2023/02/16 14:59:58;;;;;;;;;;;10.40;99.90;;;;;;5032568;28;19962;-85
2023/02/16 15:02:34;;;;;;;;;;;10.20;99.90;;;;;;5035406;28;19923;-83
2023/02/16 15:05:19;;;;;;;;;;;10.20;99.90;;;;;;5053416;28;19947;-84
2023/02/16 15:07:49;;;;;;;;;;;10.40;99.90;;;;;;5032056;28;19917;-85
2023/02/16 15:10:15;;;;;;;;;;;10.20;99.90;;;;;;5031790;28;19921;-84
2023/02/16 15:12:42;;;;;;;;;;;10.10;99.90;;;;;;5031818;28;20051;-83
2023/02/16 15:15:17;;;;;;;;;;;10.20;99.90;;;;;;5031741;28;19920;-83
2023/02/16 15:17:43;;;;;;;;;;;10.10;99.90;;;;;;5038066;28;19917;-84
2023/02/16 15:20:18;;;;;;;;;;;10.00;99.90;;;;;;5052027;28;19920;-84